createdAt,value
2023-02-08T00:00:20.883Z,862.35
2023-02-08T00:01:20.889Z,862.32
2023-02-08T00:02:20.892Z,862.32
2023-02-08T00:03:20.866Z,862.32
2023-02-08T00:04:20.842Z,862.36
2023-02-08T00:05:20.834Z,862.37
2023-02-08T00:06:20.933Z,862.38
2023-02-08T00:07:20.826Z,862.40
2023-02-08T00:08:20.814Z,862.42
2023-02-08T00:09:20.795Z,862.39
2023-02-08T00:10:20.781Z,862.39
2023-02-08T00:11:20.797Z,862.42
2023-02-08T00:12:20.787Z,862.36
2023-02-08T00:13:20.764Z,862.38
2023-02-08T00:14:20.741Z,862.36
2023-02-08T00:15:20.730Z,862.40
2023-02-08T00:16:20.809Z,862.34
2023-02-08T00:17:20.710Z,862.36
2023-02-08T00:18:20.707Z,862.36
2023-02-08T00:19:20.808Z,862.39
2023-02-08T00:20:20.679Z,862.38
2023-02-08T00:21:20.672Z,862.36
2023-02-08T00:22:20.677Z,862.36
2023-02-08T00:23:20.650Z,862.38
2023-02-08T00:24:20.642Z,862.36
2023-02-08T00:25:20.671Z,862.36
2023-02-08T00:26:20.627Z,862.36
2023-02-08T00:27:20.628Z,862.34
2023-02-08T00:28:20.807Z,862.34
2023-02-08T00:29:20.605Z,862.34
2023-02-08T00:30:20.599Z,862.31
2023-02-08T00:31:20.707Z,862.30
2023-02-08T00:32:20.551Z,862.36
2023-02-08T00:33:20.539Z,862.30
2023-02-08T00:34:20.537Z,862.29
2023-02-08T00:35:20.531Z,862.30
2023-02-08T00:36:20.525Z,862.31
2023-02-08T00:37:20.508Z,862.31
2023-02-08T00:38:20.486Z,862.32
2023-02-08T00:39:20.474Z,862.27
2023-02-08T00:40:20.464Z,862.30
2023-02-08T00:41:20.459Z,862.28
2023-02-08T00:42:20.460Z,862.29
2023-02-08T00:43:20.468Z,862.27
2023-02-08T00:44:20.419Z,862.29
2023-02-08T00:45:20.425Z,862.26
2023-02-08T00:46:20.422Z,862.30
2023-02-08T00:47:20.412Z,862.30
2023-02-08T00:48:20.407Z,862.28
2023-02-08T00:49:20.370Z,862.31
2023-02-08T00:50:20.356Z,862.27
2023-02-08T00:51:20.349Z,862.27
2023-02-08T00:52:20.351Z,862.29
2023-02-08T00:53:20.339Z,862.25
2023-02-08T00:54:20.363Z,862.26
2023-02-08T00:55:20.314Z,862.27
2023-02-08T00:56:20.294Z,862.24
2023-02-08T00:57:20.287Z,862.19
2023-02-08T00:58:20.279Z,862.20
2023-02-08T00:59:20.290Z,862.23
2023-02-08T01:00:20.279Z,862.22
2023-02-08T01:01:20.320Z,862.22
2023-02-08T01:02:20.232Z,862.16
2023-02-08T01:03:20.225Z,862.16
2023-02-08T01:04:20.229Z,862.16
2023-02-08T01:05:20.202Z,862.15
2023-02-08T01:06:20.209Z,862.12
2023-02-08T01:07:20.182Z,862.13
2023-02-08T01:08:20.172Z,862.16
2023-02-08T01:09:20.167Z,862.15
2023-02-08T01:10:20.177Z,862.17
2023-02-08T01:11:20.144Z,862.15
2023-02-08T01:12:20.148Z,862.16
2023-02-08T01:13:20.158Z,862.17
2023-02-08T01:14:20.104Z,862.14
2023-02-08T01:15:20.117Z,862.14
2023-02-08T01:16:20.190Z,862.15
2023-02-08T01:17:20.109Z,862.14
2023-02-08T01:18:20.098Z,862.15
2023-02-08T01:19:20.060Z,862.17
2023-02-08T01:20:20.047Z,862.21
2023-02-08T01:21:20.048Z,862.17
2023-02-08T01:22:20.026Z,862.20
2023-02-08T01:23:20.015Z,862.17
2023-02-08T01:24:20.015Z,862.19
2023-02-08T01:25:19.998Z,862.21
2023-02-08T01:26:19.979Z,862.13
2023-02-08T01:27:19.992Z,862.14
2023-02-08T01:28:19.998Z,862.16
2023-02-08T01:29:19.950Z,862.18
2023-02-08T01:30:19.982Z,862.14
2023-02-08T01:31:20.109Z,862.18
2023-02-08T01:32:20.022Z,862.16
2023-02-08T01:33:19.911Z,862.14
2023-02-08T01:34:19.897Z,862.11
2023-02-08T01:35:19.890Z,862.12
2023-02-08T01:36:19.891Z,862.11
2023-02-08T01:37:20.065Z,862.10
2023-02-08T01:38:19.867Z,862.11
2023-02-08T01:39:19.847Z,862.10
2023-02-08T01:40:19.835Z,862.08
2023-02-08T01:41:19.828Z,862.02
2023-02-08T01:42:19.844Z,862.03
2023-02-08T01:43:19.801Z,862.02
2023-02-08T01:44:19.799Z,862.01
2023-02-08T01:45:19.785Z,861.99
2023-02-08T01:46:19.775Z,862.00
2023-02-08T01:47:19.784Z,861.96
2023-02-08T01:48:19.786Z,861.95
2023-02-08T01:49:19.755Z,861.97
2023-02-08T01:50:19.730Z,861.92
2023-02-08T01:51:19.724Z,861.86
2023-02-08T01:52:19.726Z,861.89
2023-02-08T01:53:19.707Z,861.87
2023-02-08T01:54:19.754Z,861.86
2023-02-08T01:55:19.678Z,861.80
2023-02-08T01:56:19.676Z,861.82
2023-02-08T01:57:19.661Z,861.82
2023-02-08T01:58:19.650Z,861.78
2023-02-08T01:59:19.729Z,861.77
2023-02-08T02:00:19.638Z,861.81
2023-02-08T02:01:19.729Z,861.77
2023-02-08T02:02:19.614Z,861.78
2023-02-08T02:03:19.613Z,861.77
2023-02-08T02:04:19.600Z,861.81
2023-02-08T02:05:19.584Z,861.79
2023-02-08T02:06:19.582Z,861.79
2023-02-08T02:07:19.579Z,861.74
2023-02-08T02:08:19.547Z,861.71
2023-02-08T02:09:19.531Z,861.71
2023-02-08T02:10:19.521Z,861.71
2023-02-08T02:11:19.510Z,861.75
2023-02-08T02:12:19.515Z,861.74
2023-02-08T02:13:19.518Z,861.79
2023-02-08T02:14:19.484Z,861.75
2023-02-08T02:15:19.475Z,861.79
2023-02-08T02:16:19.497Z,861.76
2023-02-08T02:17:19.446Z,861.77
2023-02-08T02:18:19.575Z,861.79
2023-02-08T02:19:19.454Z,861.81
2023-02-08T02:20:19.416Z,861.75
2023-02-08T02:21:19.409Z,861.81
2023-02-08T02:22:19.436Z,861.79
2023-02-08T02:23:19.392Z,861.81
2023-02-08T02:24:19.406Z,861.82
2023-02-08T02:25:19.363Z,861.79
2023-02-08T02:26:19.355Z,861.83
2023-02-08T02:27:19.343Z,861.83
2023-02-08T02:28:19.355Z,861.79
2023-02-08T02:29:19.319Z,861.76
2023-02-08T02:30:19.348Z,861.79
2023-02-08T02:31:19.331Z,861.74
2023-02-08T02:32:19.292Z,861.77
2023-02-08T02:33:19.277Z,861.75
2023-02-08T02:34:19.270Z,861.73
2023-02-08T02:35:19.294Z,861.69
2023-02-08T02:36:19.275Z,861.69
2023-02-08T02:37:19.237Z,861.69
2023-02-08T02:38:19.241Z,861.71
2023-02-08T02:39:19.220Z,861.71
2023-02-08T02:40:19.226Z,861.71
2023-02-08T02:41:19.202Z,861.72
2023-02-08T02:42:19.207Z,861.72
2023-02-08T02:43:19.173Z,861.75
2023-02-08T02:44:19.168Z,861.72
2023-02-08T02:45:19.157Z,861.76
2023-02-08T02:46:19.158Z,861.74
2023-02-08T02:47:19.136Z,861.73
2023-02-08T02:48:19.141Z,861.71
2023-02-08T02:49:19.113Z,861.74
2023-02-08T02:50:19.121Z,861.76
2023-02-08T02:51:19.126Z,861.74
2023-02-08T02:52:19.093Z,861.68
2023-02-08T02:53:19.075Z,861.71
2023-02-08T02:54:19.094Z,861.71
2023-02-08T02:55:19.055Z,861.70
2023-02-08T02:56:19.064Z,861.71
2023-02-08T02:57:19.034Z,861.68
2023-02-08T02:58:19.028Z,861.66
2023-02-08T02:59:19.015Z,861.67
2023-02-08T03:00:19.029Z,861.69
2023-02-08T03:01:19.069Z,861.67
2023-02-08T03:02:19.002Z,861.61
2023-02-08T03:03:18.972Z,861.62
2023-02-08T03:04:26.494Z,861.60
2023-02-08T03:05:26.483Z,861.63
2023-02-08T03:06:26.489Z,861.62
2023-02-08T03:07:26.554Z,861.62
2023-02-08T03:08:26.450Z,861.64
2023-02-08T03:09:26.434Z,861.59
2023-02-08T03:10:26.430Z,861.69
2023-02-08T03:11:26.424Z,861.70
2023-02-08T03:12:26.413Z,861.76
2023-02-08T03:13:26.414Z,861.71
2023-02-08T03:14:26.386Z,861.71
2023-02-08T03:15:18.846Z,861.72
2023-02-08T03:16:18.893Z,861.69
2023-02-08T03:17:18.837Z,861.74
2023-02-08T03:18:18.833Z,861.75
2023-02-08T03:19:18.820Z,861.69
2023-02-08T03:20:18.802Z,861.74
2023-02-08T03:21:18.790Z,861.65
2023-02-08T03:22:18.802Z,861.67
2023-02-08T03:23:18.776Z,861.67
2023-02-08T03:24:18.775Z,861.67
2023-02-08T03:25:18.757Z,861.68
2023-02-08T03:26:18.740Z,861.69
2023-02-08T03:27:18.741Z,861.65
2023-02-08T03:28:18.790Z,861.68
2023-02-08T03:29:18.719Z,861.70
2023-02-08T03:30:18.698Z,861.68
2023-02-08T03:31:18.822Z,861.73
2023-02-08T03:32:18.677Z,861.73
2023-02-08T03:33:18.678Z,861.69
2023-02-08T03:34:18.668Z,861.70
2023-02-08T03:35:18.663Z,861.69
2023-02-08T03:36:18.636Z,861.66
2023-02-08T03:37:18.632Z,861.68
2023-02-08T03:38:18.631Z,861.69
2023-02-08T03:39:18.610Z,861.70
2023-02-08T03:40:18.595Z,861.65
2023-02-08T03:41:18.594Z,861.66
2023-02-08T03:42:18.573Z,861.68
2023-02-08T03:43:18.563Z,861.69
2023-02-08T03:44:18.554Z,861.69
2023-02-08T03:45:18.548Z,861.68
2023-02-08T03:46:18.606Z,861.71
2023-02-08T03:47:18.534Z,861.65
2023-02-08T03:48:18.513Z,861.64
2023-02-08T03:49:18.510Z,861.63
2023-02-08T03:50:18.493Z,861.69
2023-02-08T03:51:18.489Z,861.69
2023-02-08T03:52:18.493Z,861.69
2023-02-08T03:53:18.455Z,861.67
2023-02-08T03:54:18.470Z,861.72
2023-02-08T03:55:18.436Z,861.76
2023-02-08T03:56:18.426Z,861.68
2023-02-08T03:57:18.440Z,861.69
2023-02-08T03:58:18.412Z,861.72
2023-02-08T03:59:18.390Z,861.69
2023-02-08T04:00:18.406Z,861.69
2023-02-08T04:01:18.442Z,861.70
2023-02-08T04:02:18.383Z,861.73
2023-02-08T04:03:18.358Z,861.70
2023-02-08T04:04:18.345Z,861.69
2023-02-08T04:05:18.328Z,861.71
2023-02-08T04:06:18.355Z,861.70
2023-02-08T04:07:18.308Z,861.71
2023-02-08T04:08:18.298Z,861.73
2023-02-08T04:09:18.298Z,861.72
2023-02-08T04:10:18.338Z,861.73
2023-02-08T04:11:18.265Z,861.68
2023-02-08T04:12:18.272Z,861.69
2023-02-08T04:13:18.246Z,861.69
2023-02-08T04:14:18.237Z,861.67
2023-02-08T04:15:18.233Z,861.67
2023-02-08T04:16:18.222Z,861.68
2023-02-08T04:17:18.205Z,861.68
2023-02-08T04:18:18.213Z,861.70
2023-02-08T04:19:18.180Z,861.68
2023-02-08T04:20:18.175Z,861.69
2023-02-08T04:21:18.170Z,861.75
2023-02-08T04:22:18.163Z,861.71
2023-02-08T04:23:18.138Z,861.71
2023-02-08T04:24:18.152Z,861.78
2023-02-08T04:25:18.116Z,861.74
2023-02-08T04:26:18.137Z,861.76
2023-02-08T04:27:18.175Z,861.74
2023-02-08T04:28:18.143Z,861.72
2023-02-08T04:29:18.091Z,861.75
2023-02-08T04:30:18.085Z,861.67
2023-02-08T04:31:18.126Z,861.71
2023-02-08T04:32:18.072Z,861.79
2023-02-08T04:33:18.048Z,861.73
2023-02-08T04:34:18.031Z,861.76
2023-02-08T04:35:18.018Z,861.75
2023-02-08T04:36:18.036Z,861.68
2023-02-08T04:37:17.996Z,861.68
2023-02-08T04:38:17.990Z,861.68
2023-02-08T04:39:17.993Z,861.67
2023-02-08T04:40:17.974Z,861.70
2023-02-08T04:41:17.958Z,861.69
2023-02-08T04:42:17.983Z,861.65
2023-02-08T04:43:17.949Z,861.67
2023-02-08T04:44:17.928Z,861.65
2023-02-08T04:45:17.927Z,861.65
2023-02-08T04:46:17.966Z,861.63
2023-02-08T04:47:17.896Z,861.66
2023-02-08T04:48:17.894Z,861.63
2023-02-08T04:49:17.886Z,861.64
2023-02-08T04:50:17.865Z,861.60
2023-02-08T04:51:17.884Z,861.61
2023-02-08T04:52:17.847Z,861.62
2023-02-08T04:53:17.852Z,861.61
2023-02-08T04:54:17.827Z,861.60
2023-02-08T04:55:17.812Z,861.57
2023-02-08T04:56:17.813Z,861.56
2023-02-08T04:57:17.804Z,861.54
2023-02-08T04:58:17.819Z,861.55
2023-02-08T04:59:17.770Z,861.52
2023-02-08T05:00:17.768Z,861.51
2023-02-08T05:01:17.822Z,861.54
2023-02-08T05:02:17.752Z,861.54
2023-02-08T05:03:17.732Z,861.51
2023-02-08T05:04:17.730Z,861.51
2023-02-08T05:05:17.775Z,861.50
2023-02-08T05:06:17.702Z,861.53
2023-02-08T05:07:17.687Z,861.50
2023-02-08T05:08:17.713Z,861.50
2023-02-08T05:09:17.679Z,861.50
2023-02-08T05:10:17.656Z,861.51
2023-02-08T05:11:17.653Z,861.51
2023-02-08T05:12:17.639Z,861.51
2023-02-08T05:13:17.620Z,861.45
2023-02-08T05:14:17.637Z,861.50
2023-02-08T05:15:17.621Z,861.50
2023-02-08T05:16:17.627Z,861.52
2023-02-08T05:17:17.581Z,861.52
2023-02-08T05:18:17.574Z,861.53
2023-02-08T05:19:17.570Z,861.48
2023-02-08T05:20:17.614Z,861.51
2023-02-08T05:21:17.537Z,861.45
2023-02-08T05:22:17.535Z,861.46
2023-02-08T05:23:17.525Z,861.43
2023-02-08T05:24:17.512Z,861.46
2023-02-08T05:25:17.501Z,861.47
2023-02-08T05:26:17.525Z,861.45
2023-02-08T05:27:17.503Z,861.47
2023-02-08T05:28:17.506Z,861.42
2023-02-08T05:29:17.460Z,861.46
2023-02-08T05:30:17.493Z,861.45
2023-02-08T05:31:17.617Z,861.45
2023-02-08T05:32:17.444Z,861.49
2023-02-08T05:33:17.512Z,861.44
2023-02-08T05:34:17.406Z,861.40
2023-02-08T05:35:17.403Z,861.41
2023-02-08T05:36:17.383Z,861.47
2023-02-08T05:37:17.387Z,861.51
2023-02-08T05:38:17.378Z,861.45
2023-02-08T05:39:17.350Z,861.48
2023-02-08T05:40:17.336Z,861.47
2023-02-08T05:41:17.335Z,861.50
2023-02-08T05:42:17.331Z,861.46
2023-02-08T05:43:17.324Z,861.47
2023-02-08T05:44:17.322Z,861.52
2023-02-08T05:45:17.289Z,861.54
2023-02-08T05:46:17.325Z,861.49
2023-02-08T05:47:17.266Z,861.53
2023-02-08T05:48:17.279Z,861.52
2023-02-08T05:49:17.251Z,861.53
2023-02-08T05:50:17.270Z,861.49
2023-02-08T05:51:17.232Z,861.48
2023-02-08T05:52:17.211Z,861.51
2023-02-08T05:53:17.213Z,861.52
2023-02-08T05:54:17.188Z,861.51
2023-02-08T05:55:17.206Z,861.55
2023-02-08T05:56:17.211Z,861.51
2023-02-08T05:57:17.161Z,861.50
2023-02-08T05:58:17.164Z,861.56
2023-02-08T05:59:17.148Z,861.47
2023-02-08T06:00:17.130Z,861.52
2023-02-08T06:01:17.134Z,861.51
2023-02-08T06:02:17.163Z,861.51
2023-02-08T06:03:17.168Z,861.54
2023-02-08T06:04:17.156Z,861.55
2023-02-08T06:05:17.084Z,861.59
2023-02-08T06:06:17.094Z,861.58
2023-02-08T06:07:17.074Z,861.63
2023-02-08T06:08:17.059Z,861.62
2023-02-08T06:09:17.044Z,861.59
2023-02-08T06:10:17.033Z,861.55
2023-02-08T06:11:17.025Z,861.59
2023-02-08T06:12:17.011Z,861.57
2023-02-08T06:13:17.010Z,861.54
2023-02-08T06:14:17.001Z,861.54
2023-02-08T06:15:16.983Z,861.52
2023-02-08T06:16:19.805Z,861.51
2023-02-08T06:17:17.060Z,861.58
2023-02-08T06:18:16.983Z,861.52
2023-02-08T06:19:16.947Z,861.62
2023-02-08T06:20:16.935Z,861.60
2023-02-08T06:21:16.915Z,861.52
2023-02-08T06:22:16.898Z,861.54
2023-02-08T06:23:16.903Z,861.51
2023-02-08T06:24:16.879Z,861.53
2023-02-08T06:25:16.877Z,861.52
2023-02-08T06:26:16.873Z,861.53
2023-02-08T06:27:16.857Z,861.55
2023-02-08T06:28:16.863Z,861.54
2023-02-08T06:29:16.845Z,861.53
2023-02-08T06:30:16.817Z,861.53
2023-02-08T06:31:16.841Z,861.55
2023-02-08T06:32:16.839Z,861.52
2023-02-08T06:33:16.788Z,861.50
2023-02-08T06:34:16.807Z,861.56
2023-02-08T06:35:16.783Z,861.56
2023-02-08T06:36:16.750Z,861.58
2023-02-08T06:37:16.750Z,861.57
2023-02-08T06:38:16.760Z,861.59
2023-02-08T06:39:16.731Z,861.58
2023-02-08T06:40:16.713Z,861.57
2023-02-08T06:41:16.717Z,861.59
2023-02-08T06:42:16.691Z,861.61
2023-02-08T06:43:16.685Z,861.62
2023-02-08T06:44:16.692Z,861.60
2023-02-08T06:45:16.685Z,861.60
2023-02-08T06:46:16.654Z,861.62
2023-02-08T06:47:16.643Z,861.63
2023-02-08T06:48:16.645Z,861.60
2023-02-08T06:49:16.629Z,861.61
2023-02-08T06:50:16.655Z,861.62
2023-02-08T06:51:16.618Z,861.60
2023-02-08T06:52:16.597Z,861.63
2023-02-08T06:53:16.582Z,861.64
2023-02-08T06:54:16.568Z,861.61
2023-02-08T06:55:16.563Z,861.58
2023-02-08T06:56:16.562Z,861.59
2023-02-08T06:57:16.551Z,861.56
2023-02-08T06:58:16.525Z,861.59
2023-02-08T06:59:16.518Z,861.59
2023-02-08T07:00:16.506Z,861.61
2023-02-08T07:01:16.553Z,861.58
2023-02-08T07:02:16.548Z,861.62
2023-02-08T07:03:16.477Z,861.65
2023-02-08T07:04:16.475Z,861.64
2023-02-08T07:05:16.457Z,861.67
2023-02-08T07:06:16.479Z,861.69
2023-02-08T07:07:16.442Z,861.63
2023-02-08T07:08:16.439Z,861.64
2023-02-08T07:09:16.413Z,861.61
2023-02-08T07:10:16.402Z,861.65
2023-02-08T07:11:16.506Z,861.61
2023-02-08T07:12:16.381Z,861.60
2023-02-08T07:13:16.374Z,861.58
2023-02-08T07:14:16.407Z,861.55
2023-02-08T07:15:16.363Z,861.56
2023-02-08T07:16:16.416Z,861.58
2023-02-08T07:17:16.373Z,861.55
2023-02-08T07:18:16.318Z,861.62
2023-02-08T07:19:16.330Z,861.57
2023-02-08T07:20:16.338Z,861.61
2023-02-08T07:21:16.304Z,861.60
2023-02-08T07:22:16.296Z,861.57
2023-02-08T07:23:16.270Z,861.59
2023-02-08T07:24:16.268Z,861.59
2023-02-08T07:25:16.256Z,861.61
2023-02-08T07:26:16.248Z,861.62
2023-02-08T07:27:16.231Z,861.63
2023-02-08T07:28:16.246Z,861.62
2023-02-08T07:29:16.209Z,861.64
2023-02-08T07:30:16.212Z,861.64
2023-02-08T07:31:16.189Z,861.65
2023-02-08T07:32:16.199Z,861.60
2023-02-08T07:33:16.182Z,861.58
2023-02-08T07:34:16.153Z,861.54
2023-02-08T07:35:16.150Z,861.58
2023-02-08T07:36:16.136Z,861.61
2023-02-08T07:37:16.139Z,861.54
2023-02-08T07:38:16.142Z,861.54
2023-02-08T07:39:16.119Z,861.55
2023-02-08T07:40:16.095Z,861.58
2023-02-08T07:41:16.087Z,861.54
2023-02-08T07:42:16.072Z,861.52
2023-02-08T07:43:16.067Z,861.51
2023-02-08T07:44:16.084Z,861.48
2023-02-08T07:45:16.045Z,861.48
2023-02-08T07:46:16.128Z,861.48
2023-02-08T07:47:16.026Z,861.47
2023-02-08T07:48:16.012Z,861.46
2023-02-08T07:49:16.002Z,861.54
2023-02-08T07:50:16.023Z,861.52
2023-02-08T07:51:15.983Z,861.50
2023-02-08T07:52:15.979Z,861.52
2023-02-08T07:53:15.961Z,861.48
2023-02-08T07:54:15.967Z,861.48
2023-02-08T07:55:15.942Z,861.51
2023-02-08T07:56:15.962Z,861.51
2023-02-08T07:57:15.920Z,861.52
2023-02-08T07:58:15.906Z,861.47
2023-02-08T07:59:15.902Z,861.50
2023-02-08T08:00:15.899Z,861.49
2023-02-08T08:01:22.242Z,861.50
2023-02-08T08:02:16.878Z,861.56
2023-02-08T08:03:15.860Z,861.56
2023-02-08T08:04:15.855Z,861.55
2023-02-08T08:05:15.837Z,861.53
2023-02-08T08:06:15.835Z,861.57
2023-02-08T08:07:15.839Z,861.57
2023-02-08T08:08:15.814Z,861.58
2023-02-08T08:09:15.798Z,861.54
2023-02-08T08:10:15.822Z,861.55
2023-02-08T08:11:15.777Z,861.56
2023-02-08T08:12:15.763Z,861.53
2023-02-08T08:13:15.764Z,861.55
2023-02-08T08:14:15.765Z,861.55
2023-02-08T08:15:15.749Z,861.55
2023-02-08T08:16:15.766Z,861.48
2023-02-08T08:17:15.714Z,861.51
2023-02-08T08:18:15.698Z,861.47
2023-02-08T08:19:15.702Z,861.45
2023-02-08T08:20:15.687Z,861.44
2023-02-08T08:21:15.680Z,861.45
2023-02-08T08:22:15.656Z,861.47
2023-02-08T08:23:15.650Z,861.47
2023-02-08T08:24:15.649Z,861.50
2023-02-08T08:25:15.659Z,861.46
2023-02-08T08:26:15.638Z,861.46
2023-02-08T08:27:15.613Z,861.46
2023-02-08T08:28:15.711Z,861.45
2023-02-08T08:29:15.597Z,861.44
2023-02-08T08:30:15.571Z,861.40
2023-02-08T08:31:15.760Z,861.41
2023-02-08T08:32:15.562Z,861.33
2023-02-08T08:33:15.545Z,861.31
2023-02-08T08:34:15.549Z,861.29
2023-02-08T08:35:15.532Z,861.31
2023-02-08T08:36:15.525Z,861.28
2023-02-08T08:37:15.510Z,861.29
2023-02-08T08:38:15.503Z,861.32
2023-02-08T08:39:15.496Z,861.31
2023-02-08T08:40:15.467Z,861.28
2023-02-08T08:41:15.476Z,861.30
2023-02-08T08:42:15.520Z,861.29
2023-02-08T08:43:15.438Z,861.30
2023-02-08T08:44:15.445Z,861.32
2023-02-08T08:45:15.423Z,861.33
2023-02-08T08:46:15.449Z,861.34
2023-02-08T08:47:15.403Z,861.36
2023-02-08T08:48:15.392Z,861.29
2023-02-08T08:49:15.376Z,861.33
2023-02-08T08:50:15.373Z,861.36
2023-02-08T08:51:15.370Z,861.33
2023-02-08T08:52:15.351Z,861.33
2023-02-08T08:53:15.349Z,861.33
2023-02-08T08:54:15.318Z,861.32
2023-02-08T08:55:15.311Z,861.33
2023-02-08T08:56:15.319Z,861.35
2023-02-08T08:57:15.294Z,861.33
2023-02-08T08:58:15.327Z,861.33
2023-02-08T08:59:15.275Z,861.34
2023-02-08T09:00:15.256Z,861.29
2023-02-08T09:01:15.366Z,861.28
2023-02-08T09:02:15.241Z,861.29
2023-02-08T09:03:15.328Z,861.30
2023-02-08T09:04:15.231Z,861.30
2023-02-08T09:05:15.223Z,861.29
2023-02-08T09:06:15.187Z,861.31
2023-02-08T09:07:15.180Z,861.37
2023-02-08T09:08:15.172Z,861.29
2023-02-08T09:09:15.174Z,861.27
2023-02-08T09:10:15.162Z,861.27
2023-02-08T09:11:15.138Z,861.28
2023-02-08T09:12:15.164Z,861.24
2023-02-08T09:13:15.117Z,861.31
2023-02-08T09:14:15.132Z,861.28
2023-02-08T09:15:15.106Z,861.31
2023-02-08T09:16:15.161Z,861.29
2023-02-08T09:17:15.079Z,861.28
2023-02-08T09:18:15.083Z,861.31
2023-02-08T09:19:15.052Z,861.27
2023-02-08T09:20:15.034Z,861.31
2023-02-08T09:21:15.038Z,861.31
2023-02-08T09:22:15.025Z,861.34
2023-02-08T09:23:15.011Z,861.32
2023-02-08T09:24:15.005Z,861.32
2023-02-08T09:25:15.035Z,861.31
2023-02-08T09:26:14.973Z,861.28
2023-02-08T09:27:14.977Z,861.29
2023-02-08T09:28:15.003Z,861.30
2023-02-08T09:29:14.943Z,861.30
2023-02-08T09:30:14.981Z,861.26
2023-02-08T09:31:15.008Z,861.30
2023-02-08T09:32:14.987Z,861.26
2023-02-08T09:33:14.913Z,861.24
2023-02-08T09:34:14.896Z,861.23
2023-02-08T09:35:14.892Z,861.25
2023-02-08T09:36:14.862Z,861.26
2023-02-08T09:37:14.856Z,861.20
2023-02-08T09:38:14.844Z,861.22
2023-02-08T09:39:14.845Z,861.26
2023-02-08T09:40:14.826Z,861.16
2023-02-08T09:41:14.826Z,861.16
2023-02-08T09:42:14.801Z,861.17
2023-02-08T09:43:14.803Z,861.20
2023-02-08T09:44:14.780Z,861.19
2023-02-08T09:45:14.793Z,861.22
2023-02-08T09:46:14.786Z,861.24
2023-02-08T09:47:14.764Z,861.23
2023-02-08T09:48:14.740Z,861.21
2023-02-08T09:49:14.733Z,861.22
2023-02-08T09:50:14.722Z,861.22
2023-02-08T09:51:14.720Z,861.25
2023-02-08T09:52:14.714Z,861.24
2023-02-08T09:53:14.692Z,861.15
2023-02-08T09:54:14.693Z,861.16
2023-02-08T09:55:14.667Z,861.16
2023-02-08T09:56:14.666Z,861.20
2023-02-08T09:57:14.652Z,861.21
2023-02-08T09:58:14.649Z,861.17
2023-02-08T09:59:14.641Z,861.20
2023-02-08T10:00:14.618Z,861.18
2023-02-08T10:01:14.666Z,861.18
2023-02-08T10:02:14.614Z,861.25
2023-02-08T10:03:14.630Z,861.19
2023-02-08T10:04:14.587Z,861.17
2023-02-08T10:05:14.562Z,861.16
2023-02-08T10:06:14.562Z,861.19
2023-02-08T10:07:14.547Z,861.18
2023-02-08T10:08:14.533Z,861.19
2023-02-08T10:09:14.535Z,861.19
2023-02-08T10:10:14.528Z,861.22
2023-02-08T10:11:14.499Z,861.24
2023-02-08T10:12:14.503Z,861.24
2023-02-08T10:13:14.505Z,861.22
2023-02-08T10:14:14.501Z,861.27
2023-02-08T10:15:22.334Z,861.21
2023-02-08T10:16:14.460Z,861.22
2023-02-08T10:17:22.005Z,861.19
2023-02-08T10:18:21.990Z,861.17
2023-02-08T10:19:14.424Z,861.15
2023-02-08T10:20:14.425Z,861.18
2023-02-08T10:21:14.401Z,861.18
2023-02-08T10:22:14.393Z,861.12
2023-02-08T10:23:15.253Z,861.13
2023-02-08T10:24:14.360Z,861.12
2023-02-08T10:25:14.467Z,861.15
2023-02-08T10:26:14.341Z,861.14
2023-02-08T10:27:14.333Z,861.15
2023-02-08T10:28:14.348Z,861.14
2023-02-08T10:29:14.339Z,861.17
2023-02-08T10:30:14.308Z,861.11
2023-02-08T10:31:14.609Z,861.06
2023-02-08T10:32:14.283Z,861.06
2023-02-08T10:33:14.298Z,861.12
2023-02-08T10:34:14.291Z,861.05
2023-02-08T10:35:14.253Z,861.04
2023-02-08T10:36:14.233Z,861.06
2023-02-08T10:37:14.216Z,861.04
2023-02-08T10:38:14.247Z,861.01
2023-02-08T10:39:14.192Z,861.00
2023-02-08T10:40:14.194Z,860.97
2023-02-08T10:41:14.213Z,860.95
2023-02-08T10:42:14.160Z,860.98
2023-02-08T10:43:14.148Z,860.94
2023-02-08T10:44:14.198Z,860.90
2023-02-08T10:45:23.984Z,860.92
2023-02-08T10:46:15.244Z,860.92
2023-02-08T10:47:14.111Z,860.89
2023-02-08T10:48:14.091Z,860.86
2023-02-08T10:49:14.109Z,860.91
2023-02-08T10:50:14.071Z,860.90
2023-02-08T10:51:14.061Z,860.88
2023-02-08T10:52:14.093Z,860.88
2023-02-08T10:53:14.036Z,860.88
2023-02-08T10:54:14.035Z,860.92
2023-02-08T10:55:14.032Z,860.87
2023-02-08T10:56:14.000Z,860.88
2023-02-08T10:57:13.997Z,860.90
2023-02-08T10:58:13.989Z,860.82
2023-02-08T10:59:13.968Z,860.83
2023-02-08T11:00:13.958Z,860.78
2023-02-08T11:01:13.996Z,860.78
2023-02-08T11:02:13.947Z,860.73
2023-02-08T11:03:13.920Z,860.71
2023-02-08T11:04:13.990Z,860.73
2023-02-08T11:05:13.930Z,860.71
2023-02-08T11:06:13.892Z,860.74
2023-02-08T11:07:13.886Z,860.74
2023-02-08T11:08:13.869Z,860.75
2023-02-08T11:09:13.861Z,860.73
2023-02-08T11:10:13.911Z,860.72
2023-02-08T11:11:13.852Z,860.72
2023-02-08T11:12:13.826Z,860.68
2023-02-08T11:13:13.811Z,860.67
2023-02-08T11:14:13.805Z,860.67
2023-02-08T11:15:13.787Z,860.69
2023-02-08T11:16:13.875Z,860.64
2023-02-08T11:17:13.780Z,860.65
2023-02-08T11:18:13.905Z,860.67
2023-02-08T11:19:13.750Z,860.64
2023-02-08T11:20:13.737Z,860.60
2023-02-08T11:21:13.753Z,860.60
2023-02-08T11:22:13.769Z,860.63
2023-02-08T11:23:13.702Z,860.59
2023-02-08T11:24:13.698Z,860.59
2023-02-08T11:25:13.681Z,860.58
2023-02-08T11:26:13.671Z,860.58
2023-02-08T11:27:13.947Z,860.56
2023-02-08T11:28:13.750Z,860.60
2023-02-08T11:29:13.638Z,860.62
2023-02-08T11:30:13.626Z,860.52
2023-02-08T11:31:14.148Z,860.51
2023-02-08T11:32:13.609Z,860.54
2023-02-08T11:33:13.603Z,860.53
2023-02-08T11:34:13.619Z,860.55
2023-02-08T11:35:13.581Z,860.56
2023-02-08T11:36:13.573Z,860.52
2023-02-08T11:37:13.571Z,860.53
2023-02-08T11:38:13.542Z,860.51
2023-02-08T11:39:13.528Z,860.46
2023-02-08T11:40:13.577Z,860.48
2023-02-08T11:41:13.517Z,860.47
2023-02-08T11:42:13.499Z,860.47
2023-02-08T11:43:13.488Z,860.48
2023-02-08T11:44:13.480Z,860.48
2023-02-08T11:45:13.478Z,860.57
2023-02-08T11:46:13.533Z,860.54
2023-02-08T11:47:13.442Z,860.55
2023-02-08T11:48:13.434Z,860.52
2023-02-08T11:49:13.423Z,860.54
2023-02-08T11:50:13.424Z,860.52
2023-02-08T11:51:13.424Z,860.55
2023-02-08T11:52:13.426Z,860.51
2023-02-08T11:53:13.398Z,860.50
2023-02-08T11:54:13.373Z,860.48
2023-02-08T11:55:13.357Z,860.46
2023-02-08T11:56:13.349Z,860.44
2023-02-08T11:57:13.351Z,860.41
2023-02-08T11:58:13.366Z,860.38
2023-02-08T11:59:13.321Z,860.40
2023-02-08T12:00:13.306Z,860.38
2023-02-08T12:01:13.298Z,860.42
2023-02-08T12:02:13.325Z,860.35
2023-02-08T12:03:13.592Z,860.37
2023-02-08T12:04:13.306Z,860.38
2023-02-08T12:05:13.249Z,860.39
2023-02-08T12:06:13.242Z,860.36
2023-02-08T12:07:13.227Z,860.30
2023-02-08T12:08:13.223Z,860.24
2023-02-08T12:09:13.246Z,860.27
2023-02-08T12:10:13.250Z,860.30
2023-02-08T12:11:13.188Z,860.29
2023-02-08T12:12:13.175Z,860.21
2023-02-08T12:13:13.164Z,860.22
2023-02-08T12:14:13.165Z,860.15
2023-02-08T12:15:13.146Z,860.13
2023-02-08T12:16:13.260Z,860.10
2023-02-08T12:17:13.121Z,860.16
2023-02-08T12:18:13.110Z,860.07
2023-02-08T12:19:13.108Z,860.11
2023-02-08T12:20:13.134Z,860.07
2023-02-08T12:21:13.075Z,860.10
2023-02-08T12:22:13.100Z,860.03
2023-02-08T12:23:13.056Z,860.04
2023-02-08T12:24:13.067Z,860.00
2023-02-08T12:25:13.050Z,859.96
2023-02-08T12:26:13.026Z,860.01
2023-02-08T12:27:14.259Z,860.04
2023-02-08T12:28:13.108Z,860.04